Time;durP1;ratioP1;P1;durP2;ratioP2;P2;SDS_P1;SDS_P2;PMS_P1;PMS_P2;Temp;Humidity;BMP_temperature;BMP_pressure;BME280_temperature;BME280_humidity;BME280_pressure;Samples;Min_cycle;Max_cycle;Signal;HPM_P1;HPM_P2
2022/03/23 06:45:09;;;;;;;22.05;14.43;;;9.30;41.10;;;;;;5070226;23;20472;-86
2022/03/23 06:47:35;;;;;;;25.92;16.77;;;9.40;41.00;;;;;;4996271;28;20030;-85
2022/03/23 06:50:01;;;;;;;22.05;15.98;;;9.40;41.10;;;;;;4978171;28;20390;-84
2022/03/23 06:52:26;;;;;;;30.05;16.38;;;9.50;41.70;;;;;;4995463;28;20112;-84
2022/03/23 06:54:52;;;;;;;22.65;15.35;;;9.70;41.90;;;;;;4993814;28;20077;-84
2022/03/23 06:57:18;;;;;;;24.05;16.13;;;9.80;41.50;;;;;;4994133;28;20559;-88
2022/03/23 06:59:43;;;;;;;25.65;16.45;;;9.90;41.30;;;;;;4991897;28;20052;-86
2022/03/23 07:02:10;;;;;;;20.88;15.15;;;10.00;41.60;;;;;;4991217;28;20047;-88
2022/03/23 07:04:36;;;;;;;26.13;16.73;;;10.10;41.60;;;;;;4987858;28;20043;-88
2022/03/23 07:07:02;;;;;;;24.65;17.05;;;10.20;42.20;;;;;;4987582;28;20097;-87
2022/03/23 07:09:33;;;;;;;26.17;15.95;;;10.20;41.10;;;;;;4976127;28;20086;-87
2022/03/23 07:12:10;;;;;;;28.75;16.45;;;10.30;41.40;;;;;;4975111;28;20038;-92
2022/03/23 07:14:38;;;;;;;22.90;15.07;;;10.40;40.60;;;;;;4985077;28;20046;-85
2022/03/23 07:17:05;;;;;;;23.88;14.68;;;10.50;41.70;;;;;;4986808;28;20026;-86
2022/03/23 07:19:31;;;;;;;23.75;14.73;;;10.60;41.70;;;;;;4992897;28;20034;-86
2022/03/23 07:21:56;;;;;;;20.10;14.52;;;10.80;43.40;;;;;;4964801;28;20509;-87
2022/03/23 07:24:22;;;;;;;20.83;14.40;;;11.00;44.10;;;;;;4974973;28;20543;-86
2022/03/23 07:26:48;;;;;;;25.88;16.52;;;11.10;43.60;;;;;;4986988;28;20038;-87
2022/03/23 07:29:15;;;;;;;20.38;15.80;;;11.10;42.90;;;;;;4977455;28;20089;-86
2022/03/23 07:31:42;;;;;;;21.92;14.60;;;11.20;43.00;;;;;;4983333;28;20026;-87
2022/03/23 07:34:08;;;;;;;31.33;16.33;;;11.30;44.20;;;;;;4966783;28;20043;-84
2022/03/23 07:36:37;;;;;;;26.25;14.93;;;11.40;42.90;;;;;;4982725;28;20066;-83
2022/03/23 07:39:03;;;;;;;29.17;15.13;;;11.50;44.10;;;;;;4989731;28;20093;-83
2022/03/23 07:41:29;;;;;;;21.83;15.43;;;11.60;41.70;;;;;;4992323;28;20071;-83
2022/03/23 07:43:55;;;;;;;22.75;14.82;;;11.70;41.80;;;;;;4989161;28;20379;-82
2022/03/23 07:46:21;;;;;;;20.63;14.57;;;11.80;41.70;;;;;;4991940;28;20419;-83
2022/03/23 07:48:47;;;;;;;21.77;15.38;;;11.90;41.30;;;;;;4991687;28;20125;-84
2022/03/23 07:51:13;;;;;;;22.00;15.70;;;12.00;40.30;;;;;;4991814;28;20027;-83
2022/03/23 07:53:39;;;;;;;22.52;15.57;;;12.10;40.00;;;;;;4993137;28;20446;-83
2022/03/23 07:56:05;;;;;;;18.80;14.13;;;12.20;40.70;;;;;;4992484;28;20065;-83
2022/03/23 07:58:30;;;;;;;23.48;14.05;;;12.40;40.10;;;;;;4975201;28;20035;-85
2022/03/23 08:00:56;;;;;;;18.33;12.75;;;12.50;39.40;;;;;;4991954;28;20041;-83
2022/03/23 08:03:23;;;;;;;15.02;12.07;;;12.60;38.20;;;;;;4974454;28;20031;-85
2022/03/23 08:05:49;;;;;;;202.00;160.27;;;12.70;37.40;;;;;;4991834;28;20080;-86
2022/03/23 08:08:14;;;;;;;57.70;40.95;;;12.90;39.40;;;;;;4980586;28;20037;-84
2022/03/23 08:10:42;;;;;;;20.80;15.85;;;13.00;36.70;;;;;;4991576;28;20370;-83
2022/03/23 08:13:16;;;;;;;18.08;13.57;;;13.10;36.60;;;;;;4990945;28;20494;-84
2022/03/23 08:15:42;;;;;;;17.25;12.23;;;13.30;36.60;;;;;;4977329;28;20046;-85
2022/03/23 08:18:08;;;;;;;17.00;12.40;;;13.40;37.50;;;;;;4992206;28;20097;-84
2022/03/23 08:20:34;;;;;;;17.60;12.88;;;13.60;36.80;;;;;;4993269;28;20045;-84
2022/03/23 08:23:04;;;;;;;16.50;11.30;;;13.70;36.30;;;;;;4992560;28;20034;-85
2022/03/23 08:25:31;;;;;;;18.58;12.13;;;13.80;36.60;;;;;;4974948;28;20042;-85
2022/03/23 08:27:59;;;;;;;16.23;11.63;;;14.00;36.20;;;;;;4992643;28;20034;-85
2022/03/23 08:30:24;;;;;;;17.40;12.45;;;14.10;36.10;;;;;;4984265;28;20034;-85
2022/03/23 08:32:51;;;;;;;16.98;11.75;;;14.30;35.60;;;;;;4975167;28;20054;-86
2022/03/23 08:35:17;;;;;;;14.40;11.27;;;14.40;35.20;;;;;;4975258;28;20100;-84
2022/03/23 08:37:43;;;;;;;16.02;10.80;;;14.50;35.80;;;;;;4969772;28;20030;-83
2022/03/23 08:40:09;;;;;;;14.65;10.77;;;14.60;35.90;;;;;;4993046;28;20050;-83
2022/03/23 08:42:35;;;;;;;18.35;10.90;;;14.80;36.00;;;;;;4991602;28;20174;-83
2022/03/23 08:45:02;;;;;;;13.85;9.88;;;15.00;33.60;;;;;;4973214;28;20133;-85
2022/03/23 08:47:28;;;;;;;13.48;8.90;;;15.10;32.70;;;;;;4991790;28;20113;-84
2022/03/23 08:49:55;;;;;;;15.00;9.55;;;15.30;34.30;;;;;;4991517;28;20522;-83
2022/03/23 08:52:23;;;;;;;9.82;8.02;;;15.40;31.10;;;;;;4991932;28;20031;-83
2022/03/23 08:54:49;;;;;;;12.63;8.48;;;15.60;29.00;;;;;;4983977;28;20049;-87
2022/03/23 08:57:14;;;;;;;11.88;8.30;;;15.70;29.40;;;;;;4991151;28;20035;-87
2022/03/23 08:59:40;;;;;;;10.35;7.38;;;15.80;28.60;;;;;;4992458;28;20042;-87
2022/03/23 09:02:06;;;;;;;10.82;7.97;;;15.80;30.60;;;;;;4997077;28;20491;-91
2022/03/23 09:04:41;;;;;;;16.33;7.53;;;16.00;29.70;;;;;;4992921;28;20042;-86
2022/03/23 09:07:07;;;;;;;11.43;7.40;;;16.10;27.70;;;;;;4968188;28;20070;-87
2022/03/23 09:09:32;;;;;;;7.85;6.13;;;16.30;28.20;;;;;;4985745;28;20076;-86
2022/03/23 09:11:58;;;;;;;8.10;6.20;;;16.40;28.80;;;;;;4980697;28;20388;-86
2022/03/23 09:14:24;;;;;;;9.07;6.40;;;16.60;29.10;;;;;;4971886;28;20046;-86
2022/03/23 09:16:50;;;;;;;8.45;6.35;;;16.80;27.80;;;;;;4984398;28;20034;-86
2022/03/23 09:19:20;;;;;;;10.23;6.50;;;17.00;28.00;;;;;;4985469;28;20117;-86
2022/03/23 09:21:47;;;;;;;9.40;6.47;;;17.10;26.80;;;;;;4984192;28;20041;-87
2022/03/23 09:24:13;;;;;;;11.32;6.35;;;17.20;27.10;;;;;;4984655;28;20039;-86
2022/03/23 09:26:39;;;;;;;9.63;6.47;;;17.40;28.10;;;;;;4988229;28;21399;-86
2022/03/23 09:29:10;;;;;;;8.82;6.60;;;17.60;28.00;;;;;;4988026;28;20038;-86
2022/03/23 09:31:37;;;;;;;9.02;6.38;;;17.70;25.30;;;;;;4990091;28;20125;-86
2022/03/23 09:34:03;;;;;;;9.15;6.25;;;17.80;25.90;;;;;;4966470;28;20050;-86
2022/03/23 09:39:14;;;;;;;9.00;6.60;;;18.00;25.80;;;;;;4986480;28;20113;-86
2022/03/23 09:41:43;;;;;;;7.95;6.30;;;18.20;26.50;;;;;;4982469;28;20157;-86
2022/03/23 09:44:10;;;;;;;8.63;7.03;;;18.40;26.90;;;;;;4986087;28;20057;-85
2022/03/23 09:46:36;;;;;;;8.65;6.03;;;18.60;25.20;;;;;;4990162;28;20471;-84
2022/03/23 09:49:03;;;;;;;10.68;6.65;;;18.70;26.30;;;;;;4986824;28;20129;-86
2022/03/23 09:51:35;;;;;;;11.77;6.55;;;18.80;25.50;;;;;;4991562;28;20125;-86
2022/03/23 09:54:02;;;;;;;8.95;6.68;;;19.00;25.50;;;;;;4986043;28;20089;-87
2022/03/23 09:56:34;;;;;;;11.57;6.97;;;19.10;25.20;;;;;;4971936;28;20042;-86
2022/03/23 09:59:03;;;;;;;8.75;6.05;;;19.20;24.90;;;;;;4987758;28;20035;-87
2022/03/23 10:01:29;;;;;;;8.68;6.05;;;19.20;25.20;;;;;;4967325;28;20044;-87
2022/03/23 10:04:12;;;;;;;9.05;6.45;;;19.30;24.90;;;;;;4986482;28;20113;-89
2022/03/23 10:06:57;;;;;;;12.57;5.82;;;19.50;24.30;;;;;;4992179;28;20050;-89
2022/03/23 10:09:26;;;;;;;8.68;6.00;;;19.70;24.30;;;;;;4966676;28;20089;-89
2022/03/23 10:12:22;;;;;;;8.77;6.00;;;19.90;24.80;;;;;;4971677;28;20034;-90
2022/03/23 10:15:25;;;;;;;7.70;6.13;;;20.10;23.90;;;;;;4967980;28;20035;-88
2022/03/23 10:18:00;;;;;;;12.95;5.97;;;20.40;23.90;;;;;;4985834;28;20118;-89
2022/03/23 10:20:25;;;;;;;7.90;6.10;;;20.60;24.00;;;;;;4988606;28;20498;-91
2022/03/23 10:22:53;;;;;;;7.50;6.15;;;20.70;24.10;;;;;;4985736;28;20039;-90
2022/03/23 10:25:21;;;;;;;8.60;6.28;;;20.70;22.80;;;;;;4998093;28;20113;-91
2022/03/23 10:27:47;;;;;;;9.95;6.03;;;20.70;22.90;;;;;;4984090;28;20124;-90
2022/03/23 10:30:16;;;;;;;7.65;6.35;;;20.80;23.30;;;;;;4991781;28;20487;-89
2022/03/23 10:32:43;;;;;;;9.60;6.25;;;21.00;23.20;;;;;;4970750;28;20603;-89
2022/03/23 10:35:18;;;;;;;11.57;7.05;;;21.10;23.70;;;;;;4992333;28;20039;-89
2022/03/23 10:37:44;;;;;;;8.48;6.30;;;21.00;21.60;;;;;;4988355;28;20537;-89
2022/03/23 10:40:17;;;;;;;8.38;5.47;;;20.80;22.10;;;;;;4988835;28;20122;-89
2022/03/23 10:42:47;;;;;;;7.07;5.55;;;20.90;23.10;;;;;;4990959;28;20117;-88
2022/03/23 10:45:17;;;;;;;10.47;6.00;;;21.20;23.80;;;;;;4992235;28;20054;-88
2022/03/23 10:47:44;;;;;;;7.80;5.95;;;21.40;23.30;;;;;;4972378;28;20070;-90
2022/03/23 10:50:24;;;;;;;8.35;5.45;;;21.60;24.30;;;;;;4986118;28;20038;-87
2022/03/23 10:53:01;;;;;;;14.95;6.18;;;21.90;24.80;;;;;;4987592;28;20525;-87
2022/03/23 10:55:32;;;;;;;10.68;6.32;;;22.10;23.10;;;;;;4968832;28;20030;-87
2022/03/23 10:58:00;;;;;;;8.05;6.07;;;22.00;22.70;;;;;;4983351;28;20125;-87
2022/03/23 11:00:31;;;;;;;8.77;5.65;;;21.90;21.20;;;;;;4992202;28;20049;-88
2022/03/23 11:02:59;;;;;;;;;;;21.90;24.20;;;;;;4985241;28;20097;-86
2022/03/23 11:05:48;;;;;;;10.63;5.85;;;22.00;23.20;;;;;;4964048;28;19917;-87
2022/03/23 11:08:22;;;;;;;7.60;5.53;;;22.10;22.90;;;;;;4983497;28;20041;-86
2022/03/23 11:16:47;;;;;;;6.68;5.22;;;22.60;21.60;;;;;;4983930;28;20042;-88
2022/03/23 11:19:23;;;;;;;7.32;5.53;;;22.80;22.10;;;;;;4981389;28;20042;-87
2022/03/23 11:22:17;;;;;;;8.75;6.18;;;23.00;22.40;;;;;;4966790;28;20057;-89
2022/03/23 11:24:46;;;;;;;6.93;5.40;;;23.10;21.20;;;;;;4967387;28;22002;-89
2022/03/23 11:27:20;;;;;;;7.53;5.47;;;23.10;22.60;;;;;;4984912;28;20122;-89
2022/03/23 11:29:47;;;;;;;8.80;6.13;;;23.30;22.90;;;;;;4983822;28;20156;-89
2022/03/23 11:32:24;;;;;;;8.82;6.07;;;23.40;23.20;;;;;;4987527;28;20035;-89
2022/03/23 11:34:51;;;;;;;8.95;6.15;;;23.70;22.90;;;;;;4985482;28;20034;-90
2022/03/23 11:37:19;;;;;;;10.35;6.05;;;23.90;21.70;;;;;;4971121;28;20034;-89
2022/03/23 11:39:46;;;;;;;8.18;5.60;;;24.10;21.80;;;;;;4971120;28;20105;-89
2022/03/23 11:42:13;;;;;;;8.15;5.90;;;24.40;21.10;;;;;;4989242;28;20499;-89
2022/03/23 11:44:40;;;;;;;6.70;6.00;;;24.40;19.80;;;;;;4991744;28;20500;-92
2022/03/23 11:47:14;;;;;;;7.70;5.82;;;24.60;19.70;;;;;;4995272;28;20800;-92
2022/03/23 11:49:55;;;;;;;8.82;6.90;;;25.10;20.30;;;;;;4990544;28;20075;-90
2022/03/23 11:52:45;;;;;;;9.57;6.50;;;25.20;19.60;;;;;;4977893;28;20045;-93
2022/03/23 11:55:42;;;;;;;12.20;6.93;;;25.70;21.10;;;;;;4979619;28;20526;-92
2022/03/23 11:58:22;;;;;;;7.72;5.80;;;26.30;20.40;;;;;;4978103;28;20573;-93
2022/03/23 12:00:52;;;;;;;;;;;26.40;19.30;;;;;;4980625;28;20043;-91
2022/03/23 12:03:41;;;;;;;8.55;6.45;;;26.70;19.30;;;;;;4997408;28;19913;-91
2022/03/23 12:06:12;;;;;;;8.85;6.50;;;27.10;19.30;;;;;;4988360;28;20042;-89
2022/03/23 12:08:50;;;;;;;6.93;5.68;;;27.00;18.60;;;;;;5001768;28;20035;-90
2022/03/23 12:11:47;;;;;;;9.48;6.38;;;27.30;20.20;;;;;;4981569;28;20374;-88
2022/03/23 12:14:22;;;;;;;8.02;5.97;;;27.40;19.00;;;;;;5004226;28;20027;-89
2022/03/23 12:16:51;;;;;;;9.02;6.22;;;27.80;19.70;;;;;;4985812;28;20038;-89
2022/03/23 12:19:18;;;;;;;8.57;6.30;;;27.90;19.10;;;;;;4984751;28;20139;-88
2022/03/23 12:21:52;;;;;;;8.45;5.93;;;27.80;18.50;;;;;;4984170;28;20039;-90
2022/03/23 12:24:28;;;;;;;7.85;6.13;;;27.80;19.80;;;;;;5005463;28;20038;-88
2022/03/23 12:26:56;;;;;;;14.20;6.03;;;27.80;19.30;;;;;;5000573;28;20050;-85
2022/03/23 12:29:33;;;;;;;15.00;6.78;;;27.60;18.40;;;;;;4989420;28;20045;-84
2022/03/23 12:32:07;;;;;;;7.95;6.28;;;27.20;18.00;;;;;;4986158;28;20039;-89
2022/03/23 12:34:35;;;;;;;7.70;5.53;;;26.10;18.10;;;;;;4983633;28;20026;-89
2022/03/23 12:37:11;;;;;;;9.23;6.57;;;25.30;18.80;;;;;;4988962;28;20042;-92
2022/03/23 12:39:42;;;;;;;7.55;6.13;;;25.00;18.50;;;;;;4990165;28;20142;-93
2022/03/23 12:42:18;;;;;;;6.90;5.95;;;25.30;18.40;;;;;;4992262;28;20042;-96
2022/03/23 12:44:56;;;;;;;8.05;6.07;;;25.70;19.10;;;;;;4969684;28;20140;-88
2022/03/23 12:47:27;;;;;;;10.43;6.53;;;26.40;18.50;;;;;;4970539;28;20039;-87
2022/03/23 12:58:28;;;;;;;15.27;6.13;;;26.60;19.20;;;;;;4979755;28;20103;-85
2022/03/23 13:00:55;;;;;;;8.63;6.30;;;27.00;19.60;;;;;;4977835;28;20077;-86
2022/03/23 13:03:22;;;;;;;11.52;6.10;;;27.00;19.20;;;;;;4968740;28;20093;-91
2022/03/23 13:05:57;;;;;;;12.07;6.35;;;26.90;19.60;;;;;;4979637;28;20037;-88
2022/03/23 13:08:38;;;;;;;8.60;6.00;;;26.90;19.20;;;;;;4984105;28;20110;-87
2022/03/23 13:11:06;;;;;;;8.95;6.60;;;27.00;19.50;;;;;;4969869;28;20487;-88
2022/03/23 13:13:44;;;;;;;7.03;6.32;;;27.00;19.30;;;;;;4964835;28;20554;-90
2022/03/23 13:16:19;;;;;;;11.18;6.68;;;26.80;20.00;;;;;;4966228;28;20047;-89
2022/03/23 13:18:46;;;;;;;7.88;5.97;;;26.40;19.40;;;;;;4986895;28;20069;-96
2022/03/23 13:21:16;;;;;;;9.77;6.22;;;26.00;19.70;;;;;;4986086;28;20039;-96
2022/03/23 13:23:47;;;;;;;9.80;6.57;;;25.50;19.90;;;;;;4961896;28;20038;-96
2022/03/23 13:26:18;;;;;;;9.82;6.20;;;25.00;20.30;;;;;;4961287;28;20035;-95
2022/03/23 13:28:49;;;;;;;9.35;5.60;;;24.70;20.40;;;;;;4974279;28;20125;-94
2022/03/23 13:31:18;;;;;;;10.63;6.20;;;24.40;21.20;;;;;;4966726;28;20042;-93
2022/03/23 13:33:50;;;;;;;10.45;6.57;;;24.10;20.60;;;;;;4992573;28;20537;-94
2022/03/23 13:36:18;;;;;;;9.65;6.45;;;23.80;21.10;;;;;;4974268;28;20505;-92
2022/03/23 13:38:53;;;;;;;12.43;6.10;;;23.50;21.00;;;;;;4975160;28;20053;-91
2022/03/23 13:44:07;;;;;;;10.15;6.50;;;23.20;22.10;;;;;;4960479;28;1202775;-95
2022/03/23 13:46:34;;;;;;;10.80;5.93;;;23.10;22.00;;;;;;4978626;28;20132;-94
2022/03/23 13:49:14;;;;;;;8.25;6.22;;;22.90;22.60;;;;;;4984669;28;20053;-94
2022/03/23 13:51:46;;;;;;;8.02;6.05;;;22.70;23.00;;;;;;4982552;28;20808;-93
2022/03/23 13:54:24;;;;;;;11.13;6.30;;;22.60;22.90;;;;;;4982199;28;20042;-93
2022/03/23 13:56:50;;;;;;;9.05;6.43;;;22.50;22.70;;;;;;4975735;28;20069;-88
2022/03/23 13:59:17;;;;;;;9.38;5.95;;;22.40;22.90;;;;;;4984980;28;20043;-88
2022/03/23 14:01:52;;;;;;;8.75;6.53;;;22.30;23.10;;;;;;4986974;28;20388;-90
2022/03/23 14:04:20;;;;;;;9.30;6.00;;;22.20;22.20;;;;;;4973541;28;20427;-89
2022/03/23 14:06:57;;;;;;;9.18;5.97;;;22.10;22.90;;;;;;4990273;28;20054;-88
2022/03/23 14:09:23;;;;;;;13.55;6.97;;;22.20;22.80;;;;;;4971612;28;20046;-87
2022/03/23 14:14:43;;;;;;;10.82;6.20;;;22.10;22.40;;;;;;4986829;28;20026;-86
2022/03/23 14:17:23;;;;;;;13.63;6.85;;;22.00;22.80;;;;;;4986643;28;20429;-87
2022/03/23 14:19:55;;;;;;;12.85;6.70;;;21.90;23.20;;;;;;4988293;28;20076;-88
2022/03/23 14:22:25;;;;;;;7.97;6.47;;;21.90;23.30;;;;;;4971456;28;20109;-88
2022/03/23 14:24:56;;;;;;;10.18;6.38;;;21.80;23.00;;;;;;4984822;28;20039;-87
2022/03/23 14:27:33;;;;;;;14.00;6.57;;;21.80;23.10;;;;;;4989897;28;20038;-87
2022/03/23 14:32:33;;;;;;;7.70;5.97;;;21.60;22.80;;;;;;4990360;28;20109;-86
2022/03/23 14:34:58;;;;;;;10.60;6.78;;;21.50;22.80;;;;;;4985602;28;20035;-86
2022/03/23 14:37:35;;;;;;;12.75;6.28;;;21.40;22.50;;;;;;4988083;28;20027;-87
2022/03/23 14:40:17;;;;;;;11.52;6.20;;;21.40;22.80;;;;;;4989683;28;20089;-86
2022/03/23 14:42:43;;;;;;;10.95;6.50;;;21.30;22.70;;;;;;4987755;28;20078;-88
2022/03/23 14:45:30;;;;;;;10.05;5.93;;;21.30;22.40;;;;;;4987197;28;20146;-88
2022/03/23 14:47:58;;;;;;;15.27;6.72;;;21.30;22.20;;;;;;4984509;28;20039;-88
2022/03/23 14:50:24;;;;;;;9.95;5.93;;;21.30;21.70;;;;;;4987451;28;20041;-88
2022/03/23 14:52:50;;;;;;;10.65;5.72;;;21.20;21.00;;;;;;4987803;28;20036;-89
2022/03/23 14:55:16;;;;;;;7.57;5.32;;;21.10;21.50;;;;;;4971813;28;20495;-89
2022/03/23 14:57:43;;;;;;;7.00;5.70;;;21.00;21.50;;;;;;4971323;28;20039;-91
2022/03/23 15:00:09;;;;;;;6.20;4.97;;;21.00;21.50;;;;;;4971363;28;20034;-91
2022/03/23 15:02:36;;;;;;;7.38;5.60;;;21.00;21.10;;;;;;4990005;28;20043;-90
2022/03/23 15:05:02;;;;;;;8.63;6.03;;;20.90;21.10;;;;;;4970051;28;20050;-91
2022/03/23 15:13:29;;;;;;;7.95;5.97;;;20.90;22.20;;;;;;4981206;28;20035;-86
2022/03/23 15:15:56;;;;;;;9.63;5.95;;;20.90;22.80;;;;;;4958121;28;20069;-88
2022/03/23 15:18:23;;;;;;;12.00;6.00;;;20.80;22.40;;;;;;4972230;28;20031;-89
2022/03/23 15:20:49;;;;;;;10.30;5.97;;;20.80;22.40;;;;;;4994897;28;20044;-88
2022/03/23 15:23:16;;;;;;;12.90;5.78;;;20.80;22.60;;;;;;4987669;28;20031;-89
2022/03/23 15:25:41;;;;;;;10.25;5.88;;;20.80;22.20;;;;;;4982612;28;20479;-89
2022/03/23 15:28:07;;;;;;;7.35;5.80;;;20.80;22.10;;;;;;4986525;28;20085;-89
2022/03/23 15:30:34;;;;;;;7.63;5.97;;;20.80;22.30;;;;;;4986405;28;20053;-88
2022/03/23 15:33:01;;;;;;;9.38;6.13;;;20.70;22.40;;;;;;4981473;28;20030;-89
2022/03/23 15:35:27;;;;;;;9.30;6.35;;;20.70;22.50;;;;;;4963701;28;20513;-89
2022/03/23 15:37:54;;;;;;;12.98;6.97;;;20.70;22.60;;;;;;4984920;28;20041;-89
2022/03/23 15:40:20;;;;;;;10.05;6.18;;;20.70;22.40;;;;;;4984385;28;20035;-87
2022/03/23 15:43:04;;;;;;;8.30;5.55;;;20.60;22.00;;;;;;4981024;28;20038;-88
2022/03/23 15:45:37;;;;;;;11.85;6.07;;;20.60;22.30;;;;;;4983004;28;20093;-88
2022/03/23 15:48:03;;;;;;;11.48;5.78;;;20.50;21.60;;;;;;4966039;28;20431;-87
2022/03/23 15:50:31;;;;;;;7.88;5.38;;;20.50;21.80;;;;;;4986670;28;20034;-88
2022/03/23 15:52:58;;;;;;;9.23;5.18;;;20.50;22.30;;;;;;4983480;28;20030;-89
2022/03/23 15:55:25;;;;;;;8.40;5.78;;;20.50;21.90;;;;;;4982589;28;20402;-89
2022/03/23 15:57:51;;;;;;;7.47;4.82;;;20.40;22.00;;;;;;4983257;28;20109;-88
2022/03/23 16:00:17;;;;;;;9.18;5.22;;;20.40;21.80;;;;;;4980974;28;20031;-88
2022/03/23 16:02:46;;;;;;;8.13;5.82;;;20.40;21.80;;;;;;4966751;28;20065;-88
2022/03/23 16:05:23;;;;;;;8.57;5.67;;;20.40;21.70;;;;;;4960926;28;20045;-88
2022/03/23 16:07:50;;;;;;;10.73;5.95;;;20.40;21.80;;;;;;4962011;28;20262;-89
2022/03/23 16:10:18;;;;;;;7.57;5.65;;;20.30;21.30;;;;;;4983106;28;20471;-89
2022/03/23 16:12:44;;;;;;;9.30;5.65;;;20.30;21.70;;;;;;4987587;28;20344;-91
2022/03/23 16:15:10;;;;;;;7.90;5.55;;;20.30;21.40;;;;;;4991331;28;20035;-92
2022/03/23 16:17:36;;;;;;;8.88;5.35;;;20.20;21.60;;;;;;4982983;28;20094;-92
2022/03/23 16:20:06;;;;;;;7.45;4.80;;;20.20;21.70;;;;;;4980225;28;20054;-91
2022/03/23 16:22:35;;;;;;;9.57;5.60;;;20.20;21.20;;;;;;4963690;28;20078;-91
2022/03/23 16:25:03;;;;;;;11.80;5.40;;;20.20;21.60;;;;;;4968567;28;20049;-93
2022/03/23 16:27:29;;;;;;;7.72;5.50;;;20.10;21.80;;;;;;4993278;28;20026;-93
2022/03/23 16:29:55;;;;;;;7.32;4.50;;;20.10;21.60;;;;;;4966081;28;20038;-89
2022/03/23 16:32:21;;;;;;;10.63;5.40;;;20.00;21.90;;;;;;4973348;28;20042;-92
2022/03/23 16:34:47;;;;;;;10.88;5.22;;;20.00;22.30;;;;;;4967041;28;20019;-91
2022/03/23 16:37:14;;;;;;;7.47;4.28;;;20.00;22.00;;;;;;4975142;28;20039;-91
2022/03/23 16:39:41;;;;;;;10.00;4.90;;;19.90;21.20;;;;;;4995066;28;20475;-90
2022/03/23 16:42:07;;;;;;;7.20;4.22;;;19.90;21.30;;;;;;4978975;28;20061;-91
2022/03/23 16:44:32;;;;;;;12.13;4.97;;;19.90;20.90;;;;;;4979612;28;20137;-90
2022/03/23 16:46:59;;;;;;;13.52;5.15;;;19.90;21.30;;;;;;4974453;28;20094;-91
2022/03/23 16:49:25;;;;;;;8.93;5.32;;;19.80;21.10;;;;;;4964219;28;20275;-93
2022/03/23 16:51:51;;;;;;;10.50;5.45;;;19.80;21.00;;;;;;4980579;28;20060;-91
2022/03/23 16:54:26;;;;;;;9.43;4.63;;;19.70;21.40;;;;;;4982346;28;20035;-91
2022/03/23 16:56:51;;;;;;;9.38;5.15;;;19.70;21.50;;;;;;4993120;28;20118;-91
2022/03/23 16:59:24;;;;;;;8.68;4.55;;;19.70;21.90;;;;;;4980185;28;20149;-92
2022/03/23 17:01:51;;;;;;;8.50;5.82;;;19.70;23.10;;;;;;4980464;28;20065;-93
2022/03/23 17:12:34;;;;;;;7.47;5.10;;;19.40;23.10;;;;;;4985566;28;20122;-92
2022/03/23 17:15:01;;;;;;;8.85;5.35;;;19.40;23.30;;;;;;4978872;28;20113;-91
2022/03/23 17:17:28;;;;;;;6.95;5.30;;;19.30;23.90;;;;;;4980417;28;20065;-91
2022/03/23 17:19:55;;;;;;;12.07;5.60;;;19.30;24.00;;;;;;4996408;28;20053;-88
2022/03/23 17:22:25;;;;;;;13.35;5.68;;;19.20;24.70;;;;;;4984070;28;20085;-93
2022/03/23 17:24:53;;;;;;;;;;;19.20;25.50;;;;;;4987153;28;20043;-89
2022/03/23 17:27:21;;;;;;;11.38;6.20;;;19.10;25.50;;;;;;4990025;28;19941;-87
2022/03/23 17:29:48;;;;;;;10.15;5.63;;;19.10;25.60;;;;;;4970556;28;20042;-86
2022/03/23 17:32:19;;;;;;;9.55;5.90;;;19.00;26.00;;;;;;4990034;28;20558;-86
2022/03/23 17:34:45;;;;;;;15.13;6.00;;;19.00;26.40;;;;;;4971594;28;20046;-86
2022/03/23 17:37:12;;;;;;;12.55;6.43;;;19.00;26.20;;;;;;4970741;28;20034;-86
2022/03/23 17:39:38;;;;;;;8.45;5.30;;;18.90;26.00;;;;;;4992255;28;20043;-88
2022/03/23 17:42:05;;;;;;;12.02;6.13;;;18.80;26.20;;;;;;4994265;28;20161;-87
2022/03/23 17:44:34;;;;;;;10.63;6.43;;;18.80;26.70;;;;;;4990357;28;20066;-92
2022/03/23 17:47:01;;;;;;;9.70;6.07;;;18.70;27.00;;;;;;4984470;28;20038;-91
2022/03/23 17:49:30;;;;;;;8.40;5.43;;;18.70;27.50;;;;;;5003659;28;20041;-93
2022/03/23 17:51:58;;;;;;;11.73;5.68;;;18.70;28.90;;;;;;4982904;28;20035;-91
2022/03/23 17:54:24;;;;;;;13.88;6.53;;;18.60;30.00;;;;;;4998004;28;20089;-92
2022/03/23 17:56:50;;;;;;;14.30;6.68;;;18.50;29.10;;;;;;4997420;28;20453;-92
2022/03/23 17:59:18;;;;;;;11.05;6.38;;;18.50;28.70;;;;;;4976872;28;20026;-92
2022/03/23 18:01:44;;;;;;;17.20;6.65;;;18.40;28.70;;;;;;4996566;28;20085;-91
2022/03/23 18:04:11;;;;;;;10.15;6.32;;;18.30;29.60;;;;;;4979308;28;20031;-92
2022/03/23 18:06:37;;;;;;;14.63;7.72;;;18.30;30.60;;;;;;4996095;28;20481;-91
2022/03/23 18:09:03;;;;;;;15.13;7.78;;;18.20;30.00;;;;;;4978010;28;20038;-91
2022/03/23 18:11:29;;;;;;;12.10;6.95;;;18.20;29.90;;;;;;4990066;28;20050;-91
2022/03/23 18:13:55;;;;;;;15.88;7.78;;;18.10;30.30;;;;;;4986517;28;20064;-90
2022/03/23 18:16:21;;;;;;;15.40;7.97;;;18.00;30.90;;;;;;4983684;28;20039;-91
2022/03/23 18:18:47;;;;;;;13.18;7.95;;;18.00;31.30;;;;;;4960982;28;20027;-90
2022/03/23 18:21:13;;;;;;;14.50;7.78;;;17.90;31.70;;;;;;4983925;28;20114;-91
2022/03/23 18:23:40;;;;;;;13.75;7.05;;;17.80;29.70;;;;;;4960430;28;20037;-91
2022/03/23 18:26:09;;;;;;;14.65;7.97;;;17.70;33.10;;;;;;4989363;28;20045;-90
2022/03/23 18:28:35;;;;;;;13.95;8.20;;;17.70;32.60;;;;;;4995423;28;20037;-91
2022/03/23 18:31:01;;;;;;;16.10;9.00;;;17.60;32.80;;;;;;4976416;28;20058;-92
2022/03/23 18:33:26;;;;;;;18.25;8.70;;;17.60;32.60;;;;;;4977223;28;20505;-91
2022/03/23 18:35:53;;;;;;;14.40;9.23;;;17.50;31.50;;;;;;4976472;28;20454;-91
2022/03/23 18:38:20;;;;;;;20.92;9.52;;;17.50;32.50;;;;;;4989676;28;20069;-88
2022/03/23 18:40:46;;;;;;;24.50;9.55;;;17.50;34.20;;;;;;4994119;28;20050;-91
2022/03/23 18:43:13;;;;;;;20.88;8.88;;;17.50;31.90;;;;;;4995994;28;20030;-91
2022/03/23 18:45:39;;;;;;;17.88;9.65;;;17.40;33.80;;;;;;4995645;28;20054;-91
2022/03/23 18:48:06;;;;;;;22.30;9.63;;;17.30;32.60;;;;;;4994884;28;20046;-91
2022/03/23 18:50:34;;;;;;;17.45;10.13;;;17.30;35.00;;;;;;4994700;28;20117;-90
2022/03/23 18:53:01;;;;;;;16.02;9.70;;;17.30;31.70;;;;;;4995192;28;20037;-91
2022/03/23 18:55:27;;;;;;;21.05;10.50;;;17.20;32.60;;;;;;4995660;28;20069;-91
2022/03/23 18:57:54;;;;;;;16.15;10.02;;;17.20;33.40;;;;;;4993807;28;20027;-91
2022/03/23 19:00:22;;;;;;;18.67;10.48;;;17.10;32.70;;;;;;4994926;28;20034;-91
2022/03/23 19:02:48;;;;;;;16.58;10.75;;;17.10;31.60;;;;;;4995448;28;20105;-91
2022/03/23 19:05:15;;;;;;;19.92;11.98;;;17.10;33.20;;;;;;4994543;28;20050;-91
2022/03/23 19:07:41;;;;;;;21.48;12.90;;;17.00;32.60;;;;;;4987588;28;20038;-92
2022/03/23 19:10:08;;;;;;;18.77;12.35;;;17.00;31.60;;;;;;4994967;28;20398;-91
2022/03/23 19:12:35;;;;;;;20.27;12.50;;;17.00;32.30;;;;;;4994555;28;20030;-90
2022/03/23 19:15:01;;;;;;;20.55;12.18;;;17.00;32.70;;;;;;4992503;28;20037;-91
2022/03/23 19:17:27;;;;;;;16.38;11.35;;;17.00;35.40;;;;;;4994092;28;20041;-91
2022/03/23 19:19:52;;;;;;;20.10;12.00;;;16.90;32.80;;;;;;4993721;28;20034;-91
2022/03/23 19:22:18;;;;;;;25.13;11.60;;;16.90;32.90;;;;;;4993841;28;20065;-91
2022/03/23 19:24:44;;;;;;;20.25;10.98;;;16.80;32.90;;;;;;4992109;28;20046;-90
2022/03/23 19:27:12;;;;;;;18.80;11.02;;;16.80;33.20;;;;;;4993695;28;20030;-92
2022/03/23 19:29:39;;;;;;;15.38;10.00;;;16.70;32.30;;;;;;4977000;28;20042;-90
2022/03/23 19:32:06;;;;;;;17.40;9.90;;;16.70;33.50;;;;;;4977246;28;20427;-91
2022/03/23 19:34:33;;;;;;;16.35;10.50;;;16.70;31.40;;;;;;4993995;28;20038;-91
2022/03/23 19:36:58;;;;;;;13.77;9.77;;;16.70;33.00;;;;;;4992818;28;20026;-90
2022/03/23 19:39:24;;;;;;;20.67;10.88;;;16.70;34.40;;;;;;4970313;28;20133;-91
2022/03/23 19:41:50;;;;;;;18.13;10.57;;;16.70;35.80;;;;;;4983898;28;20116;-92
2022/03/23 19:44:16;;;;;;;16.35;10.70;;;16.70;34.00;;;;;;4980600;28;20471;-90
2022/03/23 19:46:41;;;;;;;18.65;11.15;;;16.70;32.90;;;;;;4986655;28;20049;-91
2022/03/23 19:49:08;;;;;;;22.88;10.90;;;16.70;30.40;;;;;;4985523;28;20042;-91
2022/03/23 19:51:34;;;;;;;17.52;11.07;;;16.60;30.40;;;;;;4970821;28;20034;-91
2022/03/23 19:54:00;;;;;;;17.27;11.48;;;16.60;32.00;;;;;;4985760;28;20433;-89
2022/03/23 19:56:27;;;;;;;21.33;13.73;;;16.60;35.10;;;;;;4971190;28;20030;-91
2022/03/23 19:58:53;;;;;;;21.58;14.32;;;16.50;30.10;;;;;;4984248;28;20050;-90
2022/03/23 20:01:19;;;;;;;19.23;13.38;;;16.50;31.10;;;;;;4965281;28;20039;-91
2022/03/23 20:03:45;;;;;;;21.27;13.82;;;16.50;33.90;;;;;;4981338;28;20543;-92
2022/03/23 20:06:12;;;;;;;19.95;14.43;;;16.40;34.10;;;;;;4988367;28;20399;-91
2022/03/23 20:08:38;;;;;;;20.15;13.60;;;16.50;31.80;;;;;;4983729;28;20129;-91
2022/03/23 20:11:10;;;;;;;24.13;15.68;;;16.40;30.40;;;;;;4986118;28;20042;-92